Time;durP1;ratioP1;P1;durP2;ratioP2;P2;SDS_P1;SDS_P2;PMS_P1;PMS_P2;Temp;Humidity;BMP_temperature;BMP_pressure;BME280_temperature;BME280_humidity;BME280_pressure;Samples;Min_cycle;Max_cycle;Signal;HPM_P1;HPM_P2
2021/06/05 00:02:15;;;;;;;3.13;0.90;;;21.90;76.50;;;;;;5079588;28;27405;-65
2021/06/05 00:05:00;;;;;;;1.48;0.90;;;21.80;76.40;;;;;;5083345;28;27430;-65
2021/06/05 00:07:45;;;;;;;2.45;0.85;;;21.80;76.30;;;;;;5083449;28;27405;-65
2021/06/05 00:10:32;;;;;;;2.72;1.00;;;21.70;76.60;;;;;;5083320;28;27439;-65
2021/06/05 00:13:27;;;;;;;1.17;0.63;;;21.70;76.50;;;;;;5081966;28;27399;-66
2021/06/05 00:16:18;;;;;;;1.35;0.63;;;21.60;75.70;;;;;;5083368;28;27848;-65
2021/06/05 00:19:04;;;;;;;3.28;0.90;;;21.60;77.00;;;;;;5079229;28;27461;-66
2021/06/05 00:21:49;;;;;;;2.40;1.20;;;21.60;77.40;;;;;;5083417;28;27484;-66
2021/06/05 00:24:34;;;;;;;1.40;0.93;;;21.50;77.10;;;;;;5082971;28;27450;-65
2021/06/05 00:27:18;;;;;;;1.48;1.00;;;21.50;77.70;;;;;;5083210;28;27412;-66
2021/06/05 00:30:04;;;;;;;3.53;1.10;;;21.40;78.20;;;;;;5082135;28;27505;-66
2021/06/05 00:32:49;;;;;;;1.98;1.20;;;21.40;77.90;;;;;;5082968;28;27414;-66
2021/06/05 00:35:34;;;;;;;1.48;1.38;;;21.40;77.40;;;;;;5081596;28;27486;-66
2021/06/05 00:38:19;;;;;;;1.10;1.05;;;21.40;77.20;;;;;;5086130;28;27419;-66
2021/06/05 00:41:04;;;;;;;1.70;1.10;;;21.30;77.50;;;;;;5086613;28;27415;-66
2021/06/05 00:43:52;;;;;;;4.88;1.35;;;21.30;78.20;;;;;;5086633;28;27414;-66
2021/06/05 00:46:38;;;;;;;2.78;1.30;;;21.30;77.30;;;;;;5086410;28;27331;-66
2021/06/05 00:49:23;;;;;;;2.25;1.17;;;21.30;77.80;;;;;;5082399;28;27355;-65
2021/06/05 00:52:07;;;;;;;1.98;1.27;;;21.30;78.30;;;;;;5086368;28;27340;-66
2021/06/05 00:54:56;;;;;;;4.72;1.60;;;21.30;78.30;;;;;;5071943;28;27403;-66
2021/06/05 00:57:41;;;;;;;1.77;0.90;;;21.20;78.10;;;;;;5086386;28;26900;-65
2021/06/05 01:00:31;;;;;;;3.00;1.17;;;21.20;77.70;;;;;;5086082;28;28044;-66
2021/06/05 01:03:17;;;;;;;4.97;1.38;;;21.20;78.50;;;;;;5085593;28;27424;-66
2021/06/05 01:06:06;;;;;;;2.25;1.10;;;21.10;78.00;;;;;;5068979;28;27439;-66
2021/06/05 01:08:54;;;;;;;3.25;1.40;;;21.10;78.30;;;;;;5081912;28;27372;-65
2021/06/05 01:12:06;;;;;;;2.00;1.25;;;21.20;78.10;;;;;;5085644;28;27842;-66
2021/06/05 01:15:10;;;;;;;4.13;1.63;;;21.10;78.00;;;;;;5099437;27;27423;-65
2021/06/05 01:18:13;;;;;;;2.33;1.17;;;21.10;78.70;;;;;;5085348;28;27397;-66
2021/06/05 01:21:35;;;;;;;2.47;1.58;;;21.10;78.40;;;;;;5085907;28;27337;-66
2021/06/05 01:24:38;;;;;;;1.48;1.00;;;21.00;78.20;;;;;;5085727;28;27466;-66
2021/06/05 01:27:27;;;;;;;1.15;1.00;;;21.00;78.50;;;;;;5085587;28;27436;-66
2021/06/05 01:30:20;;;;;;;3.58;1.17;;;21.00;78.40;;;;;;5098528;27;27438;-70
2021/06/05 01:33:09;;;;;;;1.50;1.08;;;21.00;78.80;;;;;;5067437;28;27430;-65
2021/06/05 01:35:56;;;;;;;1.48;1.10;;;20.90;78.80;;;;;;5099015;27;27382;-66
2021/06/05 01:38:43;;;;;;;4.43;1.35;;;20.90;79.20;;;;;;5084740;28;27352;-65
2021/06/05 01:41:28;;;;;;;1.33;0.90;;;20.90;79.00;;;;;;5067610;28;27421;-65
2021/06/05 01:44:16;;;;;;;1.42;1.10;;;20.80;79.20;;;;;;5067852;28;27434;-66
2021/06/05 01:47:04;;;;;;;3.53;1.20;;;20.80;79.00;;;;;;5066136;28;27340;-66
2021/06/05 01:49:49;;;;;;;1.73;0.95;;;20.80;79.20;;;;;;5084499;28;27344;-66
2021/06/05 01:52:35;;;;;;;1.65;1.00;;;20.70;79.00;;;;;;5084799;28;27407;-66
2021/06/05 01:55:31;;;;;;;3.70;1.10;;;20.70;79.00;;;;;;5084707;28;27467;-66
2021/06/05 01:58:20;;;;;;;3.50;1.13;;;20.70;79.30;;;;;;5081012;28;27935;-66
2021/06/05 02:01:13;;;;;;;2.67;0.85;;;20.70;79.30;;;;;;5069297;28;27536;-65
2021/06/05 02:04:00;;;;;;;3.17;1.30;;;20.70;80.00;;;;;;5081330;28;27399;-65
2021/06/05 02:06:58;;;;;;;3.72;0.90;;;20.70;79.40;;;;;;5085055;28;27370;-66
2021/06/05 02:09:42;;;;;;;1.55;1.10;;;20.70;79.70;;;;;;5069896;28;27474;-65
2021/06/05 02:12:41;;;;;;;1.40;1.05;;;20.70;79.80;;;;;;5096845;27;27403;-66
2021/06/05 02:15:39;;;;;;;4.85;1.90;;;20.70;79.70;;;;;;5084927;28;27513;-65
2021/06/05 02:18:29;;;;;;;2.88;0.88;;;20.70;79.50;;;;;;5085178;28;27396;-65
2021/06/05 02:21:21;;;;;;;1.95;1.05;;;20.70;79.50;;;;;;5084265;28;27443;-65
2021/06/05 02:24:24;;;;;;;1.33;0.95;;;20.70;80.00;;;;;;5084716;28;27371;-66
2021/06/05 02:27:08;;;;;;;2.95;1.10;;;20.70;80.00;;;;;;5081891;28;27505;-66
2021/06/05 02:29:59;;;;;;;2.33;1.02;;;20.70;80.30;;;;;;5082942;28;27330;-66
2021/06/05 02:32:45;;;;;;;1.40;1.15;;;20.70;80.10;;;;;;5083807;28;27914;-70
2021/06/05 02:35:36;;;;;;;2.53;1.13;;;20.60;79.90;;;;;;5083810;28;27492;-66
2021/06/05 02:38:31;;;;;;;1.10;1.00;;;20.60;80.30;;;;;;5097425;27;27431;-66
2021/06/05 02:41:20;;;;;;;3.30;1.73;;;20.60;80.70;;;;;;5080491;28;27346;-66
2021/06/05 02:44:05;;;;;;;2.03;0.90;;;20.60;80.70;;;;;;5083677;28;27391;-66
2021/06/05 02:46:52;;;;;;;1.63;0.88;;;20.60;80.30;;;;;;5080542;28;27481;-66
2021/06/05 02:49:38;;;;;;;1.13;1.02;;;20.60;80.70;;;;;;5066420;28;27415;-66
2021/06/05 02:52:29;;;;;;;1.25;0.95;;;20.60;81.00;;;;;;5084341;28;27459;-66
2021/06/05 02:55:20;;;;;;;2.15;0.98;;;20.60;81.30;;;;;;5083109;28;27415;-66
2021/06/05 02:58:07;;;;;;;1.88;0.85;;;20.50;81.20;;;;;;5080084;28;27510;-66
2021/06/05 03:00:54;;;;;;;3.17;1.08;;;20.50;81.10;;;;;;5084517;28;27351;-66
2021/06/05 03:03:40;;;;;;;1.70;1.10;;;20.50;81.00;;;;;;5080497;28;27340;-66
2021/06/05 03:06:25;;;;;;;1.83;1.00;;;20.50;81.60;;;;;;5084059;28;27361;-66
2021/06/05 03:09:15;;;;;;;2.35;1.17;;;20.50;81.40;;;;;;5084383;28;27354;-65
2021/06/05 03:12:00;;;;;;;3.45;1.10;;;20.50;81.30;;;;;;5066436;28;27481;-66
2021/06/05 03:14:45;;;;;;;2.38;1.13;;;20.50;81.70;;;;;;5084206;28;27453;-65
2021/06/05 03:17:31;;;;;;;2.53;1.02;;;20.50;81.50;;;;;;5079822;28;27824;-66
2021/06/05 03:20:25;;;;;;;2.05;1.20;;;20.40;81.70;;;;;;5083369;28;27419;-65
2021/06/05 03:23:10;;;;;;;3.35;1.20;;;20.40;81.30;;;;;;5079855;28;27391;-66
2021/06/05 03:25:55;;;;;;;1.67;1.25;;;20.40;81.40;;;;;;5083797;28;27420;-66
2021/06/05 03:28:41;;;;;;;2.88;1.15;;;20.40;81.40;;;;;;5083268;28;27427;-65
2021/06/05 03:31:28;;;;;;;1.70;1.20;;;20.40;81.40;;;;;;5082834;28;27423;-66
2021/06/05 03:34:18;;;;;;;2.83;1.02;;;20.30;81.60;;;;;;5066148;28;27541;-66
2021/06/05 03:37:08;;;;;;;2.40;1.48;;;20.30;81.50;;;;;;5079843;28;27600;-66
2021/06/05 03:39:57;;;;;;;2.67;1.52;;;20.30;81.20;;;;;;5083850;28;27457;-65
2021/06/05 03:42:41;;;;;;;2.67;1.40;;;20.30;81.40;;;;;;5083037;28;27508;-66
2021/06/05 03:45:27;;;;;;;1.17;1.02;;;20.30;81.80;;;;;;5079520;28;27332;-65
2021/06/05 03:48:13;;;;;;;2.92;1.20;;;20.20;81.40;;;;;;5082258;28;27497;-65
2021/06/05 03:50:57;;;;;;;3.47;1.08;;;20.20;81.10;;;;;;5079380;28;27498;-69
2021/06/05 03:53:42;;;;;;;1.38;0.90;;;20.20;81.50;;;;;;5083549;28;27592;-66
2021/06/05 03:56:27;;;;;;;5.10;1.02;;;20.20;81.90;;;;;;5083497;28;27340;-66
2021/06/05 03:59:12;;;;;;;1.42;1.00;;;20.20;81.80;;;;;;5083632;28;27458;-65
2021/06/05 04:01:57;;;;;;;1.63;1.00;;;20.10;82.70;;;;;;5083637;28;27420;-66
2021/06/05 04:04:41;;;;;;;1.95;1.05;;;20.10;82.30;;;;;;5079482;28;27356;-66
2021/06/05 04:07:26;;;;;;;2.47;1.15;;;20.10;82.20;;;;;;5083602;28;27345;-65
2021/06/05 04:10:11;;;;;;;4.15;1.83;;;20.10;82.30;;;;;;5085442;28;27328;-65
2021/06/05 04:12:57;;;;;;;2.30;0.93;;;20.10;82.20;;;;;;5085947;28;27418;-66
2021/06/05 04:15:44;;;;;;;1.67;1.08;;;20.10;82.30;;;;;;5086818;28;27485;-66
2021/06/05 04:18:34;;;;;;;1.30;1.00;;;20.10;82.70;;;;;;5083562;28;27473;-65
2021/06/05 04:21:20;;;;;;;1.45;1.02;;;20.10;82.60;;;;;;5086959;28;27386;-66
2021/06/05 04:24:05;;;;;;;1.35;0.98;;;20.20;82.60;;;;;;5086639;28;27865;-65
2021/06/05 04:26:50;;;;;;;2.30;1.20;;;20.10;82.70;;;;;;5096988;27;27332;-65
2021/06/05 04:29:35;;;;;;;1.50;0.93;;;20.20;83.00;;;;;;5085801;28;27577;-65
2021/06/05 04:32:20;;;;;;;1.80;1.00;;;20.20;83.10;;;;;;5086748;28;27436;-65
2021/06/05 04:35:06;;;;;;;1.92;0.93;;;20.20;82.80;;;;;;5086652;28;28110;-65
2021/06/05 04:37:51;;;;;;;2.58;1.17;;;20.20;83.10;;;;;;5086654;28;27384;-65
2021/06/05 04:40:36;;;;;;;2.00;0.98;;;20.20;83.50;;;;;;5086443;28;27403;-65
2021/06/05 04:43:22;;;;;;;1.45;0.95;;;20.20;83.70;;;;;;5086373;28;27399;-65
2021/06/05 04:46:06;;;;;;;4.22;1.08;;;20.20;83.70;;;;;;5085976;28;27957;-65
2021/06/05 04:48:52;;;;;;;1.65;1.02;;;20.20;83.50;;;;;;5086525;28;27332;-66
2021/06/05 04:51:37;;;;;;;1.33;1.10;;;20.20;83.70;;;;;;5099898;27;27398;-66
2021/06/05 04:54:21;;;;;;;3.15;1.40;;;20.20;83.70;;;;;;5086511;28;27316;-65
2021/06/05 04:57:06;;;;;;;3.28;1.48;;;20.20;84.20;;;;;;5086090;28;27856;-65
2021/06/05 04:59:51;;;;;;;1.10;1.00;;;20.20;84.50;;;;;;5086076;28;27360;-66
2021/06/05 05:02:35;;;;;;;1.85;1.02;;;20.20;84.90;;;;;;5086369;28;27403;-66
2021/06/05 05:05:20;;;;;;;2.50;1.20;;;20.20;84.70;;;;;;5085480;28;27415;-66
2021/06/05 05:08:05;;;;;;;5.07;1.23;;;20.20;84.90;;;;;;5085927;28;27370;-66
2021/06/05 05:10:51;;;;;;;2.13;1.05;;;20.20;84.70;;;;;;5085170;28;27410;-66
2021/06/05 05:13:35;;;;;;;1.40;1.25;;;20.20;82.80;;;;;;5086200;28;27374;-66
2021/06/05 05:16:20;;;;;;;1.75;1.10;;;20.20;80.40;;;;;;5085810;28;26926;-65
2021/06/05 05:19:05;;;;;;;2.80;1.15;;;20.30;79.00;;;;;;5086097;28;27407;-66
2021/06/05 05:21:50;;;;;;;3.70;1.52;;;20.30;79.40;;;;;;5085835;28;27525;-65
2021/06/05 05:24:34;;;;;;;6.05;1.33;;;20.40;80.20;;;;;;5081704;28;27345;-65
2021/06/05 05:27:19;;;;;;;2.47;1.23;;;20.40;79.80;;;;;;5085978;28;27305;-66
2021/06/05 05:30:05;;;;;;;1.35;1.10;;;20.40;80.00;;;;;;5084936;28;27423;-66
2021/06/05 05:32:50;;;;;;;2.25;1.25;;;20.40;79.70;;;;;;5085138;28;27352;-66
2021/06/05 05:35:35;;;;;;;1.80;1.15;;;20.40;80.60;;;;;;5081537;28;27397;-71
2021/06/05 05:38:19;;;;;;;2.00;1.10;;;20.40;80.90;;;;;;5084497;28;27667;-70
2021/06/05 05:41:12;;;;;;;2.30;1.52;;;20.40;80.30;;;;;;5085681;28;27406;-71
2021/06/05 05:43:57;;;;;;;5.63;1.17;;;20.50;80.90;;;;;;5084887;28;27528;-66
2021/06/05 05:46:41;;;;;;;1.73;1.00;;;20.50;79.30;;;;;;5085717;28;27386;-71
2021/06/05 05:49:29;;;;;;;1.58;1.15;;;20.50;80.30;;;;;;5085293;28;27440;-71
2021/06/05 05:52:14;;;;;;;4.43;1.20;;;20.60;79.80;;;;;;5085366;28;27331;-71
2021/06/05 05:54:58;;;;;;;1.50;1.08;;;20.60;80.00;;;;;;5085522;28;27460;-71
2021/06/05 05:57:43;;;;;;;2.67;1.00;;;20.60;80.00;;;;;;5085544;28;27333;-71
2021/06/05 06:00:29;;;;;;;2.97;1.48;;;20.70;79.60;;;;;;5085240;28;27360;-71
2021/06/05 06:03:16;;;;;;;2.05;1.10;;;20.70;78.50;;;;;;5085425;28;27391;-71
2021/06/05 06:06:00;;;;;;;2.40;1.38;;;20.70;80.20;;;;;;5084145;28;27354;-70
2021/06/05 06:08:48;;;;;;;3.97;1.80;;;20.70;78.90;;;;;;5084259;28;27375;-71
2021/06/05 06:11:32;;;;;;;3.90;1.10;;;20.70;79.80;;;;;;5085007;28;27533;-71
2021/06/05 06:14:17;;;;;;;4.00;1.38;;;20.70;79.50;;;;;;5080840;28;27326;-71
2021/06/05 06:17:02;;;;;;;4.60;2.08;;;20.70;80.20;;;;;;5085052;28;27391;-67
2021/06/05 06:19:47;;;;;;;2.60;1.40;;;20.80;80.20;;;;;;5085175;28;27410;-71
2021/06/05 06:22:32;;;;;;;6.20;1.55;;;20.80;80.40;;;;;;5084095;28;27477;-71
2021/06/05 06:25:22;;;;;;;3.83;1.58;;;20.80;80.40;;;;;;5085039;28;27865;-67
2021/06/05 06:28:08;;;;;;;3.75;1.30;;;20.80;81.30;;;;;;5080289;28;27645;-71
2021/06/05 06:30:53;;;;;;;1.85;1.13;;;20.80;81.20;;;;;;5084725;28;27422;-71
2021/06/05 06:33:41;;;;;;;3.85;1.10;;;20.80;81.50;;;;;;5083594;28;27466;-72
2021/06/05 06:36:25;;;;;;;2.33;1.20;;;20.90;81.40;;;;;;5081594;28;27379;-71
2021/06/05 06:39:11;;;;;;;2.03;1.20;;;20.90;80.80;;;;;;5084530;28;27330;-71
2021/06/05 06:41:56;;;;;;;2.20;1.13;;;20.90;81.30;;;;;;5084129;28;27427;-71
2021/06/05 06:44:40;;;;;;;1.42;1.20;;;20.90;81.00;;;;;;5084761;28;27370;-72
2021/06/05 06:47:27;;;;;;;3.05;1.23;;;20.90;80.30;;;;;;5084349;28;27873;-71
2021/06/05 06:50:13;;;;;;;2.80;1.30;;;20.90;80.30;;;;;;5084589;28;27412;-71
2021/06/05 06:53:00;;;;;;;3.47;1.33;;;20.90;81.50;;;;;;5069385;28;27352;-67
2021/06/05 06:55:48;;;;;;;3.13;1.30;;;20.80;79.90;;;;;;5084611;28;27474;-72
2021/06/05 06:58:33;;;;;;;3.22;1.20;;;20.80;80.70;;;;;;5084468;28;27435;-71
2021/06/05 07:01:18;;;;;;;2.25;1.13;;;20.80;79.80;;;;;;5083820;28;27370;-72
2021/06/05 07:04:03;;;;;;;3.65;1.50;;;20.80;80.60;;;;;;5083547;28;27421;-71
2021/06/05 07:06:47;;;;;;;3.38;1.45;;;20.80;80.10;;;;;;5084077;28;27461;-71
2021/06/05 07:09:32;;;;;;;3.85;1.63;;;20.80;79.20;;;;;;5066620;28;27400;-71
2021/06/05 07:12:16;;;;;;;2.40;1.30;;;20.80;77.60;;;;;;5084988;28;27423;-67
2021/06/05 07:15:01;;;;;;;3.42;1.40;;;20.80;80.10;;;;;;5084786;28;27462;-67
2021/06/05 07:17:45;;;;;;;2.60;1.40;;;20.80;80.70;;;;;;5084239;28;27390;-66
2021/06/05 07:20:30;;;;;;;3.33;1.20;;;20.80;79.00;;;;;;5084672;28;27415;-67
2021/06/05 07:23:20;;;;;;;2.95;1.30;;;20.80;78.90;;;;;;5084556;28;27411;-67
2021/06/05 07:26:07;;;;;;;1.25;1.10;;;20.80;78.20;;;;;;5084900;28;27395;-68
2021/06/05 07:28:53;;;;;;;1.58;1.20;;;20.70;79.40;;;;;;5084000;28;27585;-69
2021/06/05 07:31:41;;;;;;;3.47;1.35;;;20.70;78.40;;;;;;5084502;28;27410;-67
2021/06/05 07:34:25;;;;;;;1.42;0.80;;;20.70;77.00;;;;;;5080424;28;27411;-72
2021/06/05 07:37:11;;;;;;;2.53;1.20;;;20.70;78.50;;;;;;5084784;28;27422;-68
2021/06/05 07:39:55;;;;;;;2.75;1.20;;;20.70;79.20;;;;;;5084645;28;27445;-67
2021/06/05 07:42:40;;;;;;;3.08;1.30;;;20.70;78.30;;;;;;5084607;28;27418;-66
2021/06/05 07:45:24;;;;;;;2.10;1.23;;;20.70;78.80;;;;;;5083160;28;27399;-67
2021/06/05 07:48:09;;;;;;;1.90;1.52;;;20.70;77.50;;;;;;5083612;28;27558;-66
2021/06/05 07:50:54;;;;;;;3.53;1.38;;;20.70;79.20;;;;;;5084337;28;27414;-67
2021/06/05 07:53:38;;;;;;;2.15;1.48;;;20.70;80.70;;;;;;5083717;28;27431;-67
2021/06/05 07:56:23;;;;;;;3.53;1.25;;;20.80;78.80;;;;;;5083111;28;27507;-66
2021/06/05 07:59:07;;;;;;;6.22;1.70;;;20.70;77.90;;;;;;5084518;28;27421;-67
2021/06/05 08:01:54;;;;;;;6.30;1.42;;;20.80;78.70;;;;;;5084199;28;27406;-66
2021/06/05 08:04:38;;;;;;;3.15;1.23;;;20.80;78.00;;;;;;5084025;28;27439;-67
2021/06/05 08:07:22;;;;;;;1.40;1.30;;;20.80;80.20;;;;;;5084321;28;27367;-67
2021/06/05 08:10:08;;;;;;;4.20;1.25;;;20.90;81.20;;;;;;5084255;28;27398;-67
2021/06/05 08:12:52;;;;;;;2.17;1.20;;;20.90;82.20;;;;;;5083245;28;27319;-67
2021/06/05 08:15:40;;;;;;;3.33;1.38;;;21.00;82.50;;;;;;5068765;28;27339;-67
2021/06/05 08:18:25;;;;;;;2.67;1.23;;;21.10;82.90;;;;;;5083837;28;27408;-67
2021/06/05 08:21:12;;;;;;;2.45;1.33;;;21.20;83.60;;;;;;5083183;28;27423;-67
2021/06/05 08:23:57;;;;;;;1.67;1.42;;;21.30;83.50;;;;;;5082713;28;27379;-67
2021/06/05 08:26:41;;;;;;;2.80;1.35;;;21.40;83.40;;;;;;5084046;28;27431;-67
2021/06/05 08:29:26;;;;;;;1.90;1.33;;;21.50;84.30;;;;;;5083053;28;27628;-67
2021/06/05 08:32:11;;;;;;;1.60;1.23;;;21.50;83.10;;;;;;5083784;28;27460;-67
2021/06/05 08:34:55;;;;;;;3.03;1.40;;;21.60;83.40;;;;;;5083971;28;27310;-67
2021/06/05 08:37:40;;;;;;;3.15;1.55;;;21.70;82.50;;;;;;5083878;28;27602;-67
2021/06/05 08:40:38;;;;;;;3.88;1.33;;;21.80;82.10;;;;;;5083864;28;27436;-67
2021/06/05 08:43:32;;;;;;;1.88;1.23;;;21.80;82.70;;;;;;5083177;28;27333;-67
2021/06/05 08:46:40;;;;;;;2.05;1.10;;;21.90;82.40;;;;;;5083756;28;27421;-67
2021/06/05 08:49:28;;;;;;;2.08;1.42;;;22.00;82.40;;;;;;5080452;28;27373;-67
2021/06/05 08:52:27;;;;;;;2.30;1.20;;;22.10;83.30;;;;;;5082710;28;29405;-72
2021/06/05 08:55:36;;;;;;;1.63;1.23;;;22.20;83.80;;;;;;5084234;28;27324;-68
2021/06/05 08:58:31;;;;;;;2.45;1.23;;;22.30;83.50;;;;;;5086486;28;27380;-68
2021/06/05 09:01:26;;;;;;;3.25;1.50;;;22.40;85.10;;;;;;5086814;28;27841;-68
2021/06/05 09:04:15;;;;;;;2.78;1.40;;;22.50;83.90;;;;;;5082826;28;27408;-68
2021/06/05 09:07:06;;;;;;;1.55;1.02;;;22.50;82.80;;;;;;5087086;28;27434;-67
2021/06/05 09:09:51;;;;;;;1.45;1.20;;;22.60;83.50;;;;;;5086931;28;27367;-67
2021/06/05 09:12:36;;;;;;;3.20;1.48;;;22.60;83.70;;;;;;5086925;28;28019;-68
2021/06/05 09:15:27;;;;;;;2.95;1.17;;;22.60;83.60;;;;;;5086961;28;27391;-67
2021/06/05 09:18:12;;;;;;;1.25;1.15;;;22.60;84.20;;;;;;5085693;28;27441;-72
2021/06/05 09:21:07;;;;;;;2.70;1.52;;;22.70;83.60;;;;;;5086922;28;27388;-67
2021/06/05 09:24:09;;;;;;;1.50;1.30;;;22.70;84.30;;;;;;5086533;28;27465;-72
2021/06/05 09:27:03;;;;;;;1.88;1.45;;;22.80;85.90;;;;;;5085805;28;27528;-67
2021/06/05 09:29:50;;;;;;;2.20;1.42;;;22.80;85.40;;;;;;5085788;28;27058;-67
2021/06/05 09:32:56;;;;;;;2.25;1.50;;;22.80;86.10;;;;;;5086380;28;27423;-68
2021/06/05 09:35:45;;;;;;;1.15;1.02;;;22.90;86.60;;;;;;5086321;28;27501;-67
2021/06/05 09:38:34;;;;;;;1.60;1.30;;;22.90;86.90;;;;;;5085546;28;27336;-67
2021/06/05 09:41:19;;;;;;;3.13;1.80;;;22.80;85.90;;;;;;5086382;28;27419;-67
2021/06/05 09:44:30;;;;;;;3.30;1.45;;;22.90;84.70;;;;;;5086515;28;27477;-67
2021/06/05 09:47:17;;;;;;;3.92;1.00;;;22.90;84.20;;;;;;5084785;28;27344;-67
2021/06/05 09:50:25;;;;;;;4.22;1.23;;;23.00;82.80;;;;;;5086287;28;27395;-67
2021/06/05 09:53:18;;;;;;;3.72;1.55;;;23.00;82.60;;;;;;5086128;28;27473;-67
2021/06/05 09:56:26;;;;;;;1.65;1.38;;;23.10;83.20;;;;;;5086310;28;27332;-67
2021/06/05 09:59:16;;;;;;;1.45;1.27;;;23.20;81.90;;;;;;5086223;28;27881;-67
2021/06/05 10:02:05;;;;;;;1.55;1.05;;;23.30;81.60;;;;;;5086206;28;27329;-67
2021/06/05 10:05:13;;;;;;;3.28;1.70;;;23.40;83.80;;;;;;5085294;28;27474;-67
2021/06/05 10:08:17;;;;;;;1.90;1.30;;;23.60;82.50;;;;;;5085186;28;27410;-67
2021/06/05 10:11:21;;;;;;;1.55;1.40;;;23.70;82.90;;;;;;5085580;28;28037;-67
2021/06/05 10:14:17;;;;;;;3.60;1.10;;;24.00;82.80;;;;;;5084622;28;27498;-67
2021/06/05 10:17:15;;;;;;;1.25;1.10;;;24.20;83.30;;;;;;5067760;28;26909;-67
2021/06/05 10:20:21;;;;;;;4.40;1.20;;;24.30;83.50;;;;;;5085644;28;27384;-68
2021/06/05 10:23:07;;;;;;;1.73;0.98;;;24.40;83.90;;;;;;5085603;28;27375;-68
2021/06/05 10:25:59;;;;;;;2.30;1.20;;;24.50;82.60;;;;;;5085136;28;27392;-66
2021/06/05 10:28:45;;;;;;;2.15;1.02;;;24.50;81.60;;;;;;5084865;28;27360;-66
2021/06/05 10:31:30;;;;;;;2.55;1.33;;;24.40;81.60;;;;;;5085485;28;27389;-66
2021/06/05 10:34:54;;;;;;;1.55;1.23;;;24.40;82.50;;;;;;5085619;28;27974;-65
2021/06/05 10:37:38;;;;;;;3.72;1.25;;;24.30;82.90;;;;;;5076182;28;27418;-69
2021/06/05 10:40:26;;;;;;;2.08;1.52;;;24.20;81.40;;;;;;5085041;28;27412;-67
2021/06/05 10:43:15;;;;;;;2.35;1.10;;;24.10;74.00;;;;;;5084585;28;27312;-67
2021/06/05 10:45:59;;;;;;;2.00;0.85;;;24.00;73.70;;;;;;5084477;28;27494;-66
2021/06/05 10:48:46;;;;;;;4.00;1.25;;;23.90;73.00;;;;;;5081206;28;27458;-67
2021/06/05 10:51:30;;;;;;;1.70;1.02;;;23.80;72.80;;;;;;5067025;28;27446;-67
2021/06/05 10:54:26;;;;;;;1.10;1.00;;;23.70;72.60;;;;;;5084561;28;27436;-67
2021/06/05 10:57:20;;;;;;;3.63;0.95;;;23.60;71.10;;;;;;5084948;28;27468;-67
2021/06/05 11:00:25;;;;;;;4.30;0.80;;;23.60;71.50;;;;;;5085238;28;27431;-67
2021/06/05 11:03:29;;;;;;;1.92;0.70;;;23.60;69.90;;;;;;5081114;28;27481;-66
2021/06/05 11:06:15;;;;;;;3.80;0.90;;;23.60;70.20;;;;;;5085143;28;27408;-69
2021/06/05 11:09:01;;;;;;;2.97;0.80;;;23.60;70.10;;;;;;5084390;28;27925;-66
2021/06/05 11:11:47;;;;;;;1.15;1.00;;;23.60;69.50;;;;;;5083589;28;27479;-66
2021/06/05 11:14:39;;;;;;;1.75;0.88;;;23.50;68.80;;;;;;5084863;28;27458;-66
2021/06/05 11:17:29;;;;;;;5.22;0.73;;;23.50;68.20;;;;;;5084730;28;27533;-66
2021/06/05 11:20:17;;;;;;;2.47;0.88;;;23.50;68.40;;;;;;5084620;28;27817;-67
2021/06/05 11:23:03;;;;;;;2.22;0.80;;;23.60;68.00;;;;;;5084863;28;27328;-67
2021/06/05 11:25:49;;;;;;;1.95;0.77;;;23.70;66.90;;;;;;5084135;28;27311;-67
2021/06/05 11:28:40;;;;;;;2.85;0.90;;;24.00;67.00;;;;;;5081037;28;27448;-68
2021/06/05 11:31:39;;;;;;;4.15;0.73;;;24.20;65.50;;;;;;5084470;28;27324;-67
2021/06/05 11:34:36;;;;;;;1.65;0.75;;;24.40;63.90;;;;;;5084497;28;27427;-72
2021/06/05 11:37:23;;;;;;;3.22;0.60;;;24.50;62.90;;;;;;5083867;28;27469;-67
2021/06/05 11:40:09;;;;;;;15.38;3.25;;;24.50;63.90;;;;;;5084645;28;27485;-65
2021/06/05 11:42:54;;;;;;;6.97;2.60;;;24.60;63.50;;;;;;5098214;27;27422;-65
2021/06/05 11:45:58;;;;;;;5.60;1.50;;;24.50;63.20;;;;;;5083761;28;27341;-67
2021/06/05 11:49:01;;;;;;;4.38;1.00;;;24.40;62.20;;;;;;5084341;28;27466;-70
2021/06/05 11:51:46;;;;;;;10.23;1.67;;;24.20;61.60;;;;;;5083245;28;27451;-67
2021/06/05 11:54:30;;;;;;;0.82;0.60;;;24.10;62.10;;;;;;5084431;28;27481;-67
2021/06/05 11:57:23;;;;;;;1.30;0.50;;;24.00;62.70;;;;;;5083428;28;27496;-67
2021/06/05 12:00:27;;;;;;;2.00;0.80;;;23.90;63.50;;;;;;5083833;28;27345;-67
2021/06/05 12:03:28;;;;;;;4.82;0.82;;;23.80;64.40;;;;;;5083803;28;27342;-67
2021/06/05 12:06:16;;;;;;;0.40;0.40;;;23.70;64.50;;;;;;5084305;28;27392;-64
2021/06/05 12:09:07;;;;;;;0.40;0.40;;;23.70;64.20;;;;;;5083943;28;27356;-65
2021/06/05 12:11:55;;;;;;;2.95;0.60;;;23.60;65.30;;;;;;5084080;28;27493;-64
2021/06/05 12:17:32;;;;;;;1.67;0.65;;;23.70;67.00;;;;;;5084174;28;27415;-63
2021/06/05 12:20:20;;;;;;;1.90;0.50;;;23.70;67.50;;;;;;5083342;28;27541;-63
2021/06/05 12:23:22;;;;;;;2.50;0.80;;;23.70;69.30;;;;;;5083884;28;27333;-64
2021/06/05 12:26:26;;;;;;;0.50;0.50;;;23.80;70.90;;;;;;5084123;28;27412;-64
2021/06/05 12:29:13;;;;;;;2.10;0.65;;;23.90;70.90;;;;;;5083106;28;27873;-64
2021/06/05 12:32:10;;;;;;;0.75;0.60;;;24.00;72.30;;;;;;5086501;28;27411;-64
2021/06/05 12:34:55;;;;;;;2.83;0.80;;;24.10;73.30;;;;;;5086657;28;27357;-63
2021/06/05 12:37:40;;;;;;;4.20;0.93;;;24.20;69.50;;;;;;5101249;27;27371;-63
2021/06/05 12:40:42;;;;;;;0.80;0.60;;;24.30;69.80;;;;;;5086783;28;27333;-63
2021/06/05 12:43:31;;;;;;;4.57;0.60;;;24.30;68.40;;;;;;5087177;28;27428;-63
2021/06/05 12:46:42;;;;;;;1.23;0.60;;;24.30;66.60;;;;;;5087234;28;27382;-64
2021/06/05 12:49:28;;;;;;;1.00;0.70;;;24.20;65.80;;;;;;5084130;28;27465;-63
2021/06/05 12:52:17;;;;;;;0.40;0.40;;;24.20;65.10;;;;;;5086856;28;27469;-64
2021/06/05 12:55:21;;;;;;;2.75;0.65;;;24.10;65.70;;;;;;5086630;28;27400;-64
2021/06/05 12:58:07;;;;;;;2.92;0.98;;;24.00;67.50;;;;;;5087227;28;27363;-64
2021/06/05 13:00:52;;;;;;;1.58;1.30;;;23.90;68.80;;;;;;5087184;28;27370;-64
2021/06/05 13:03:43;;;;;;;0.50;0.50;;;23.80;68.60;;;;;;5087040;28;27961;-64
2021/06/05 13:06:28;;;;;;;1.17;1.10;;;23.70;68.40;;;;;;5087109;28;27472;-64
2021/06/05 13:09:17;;;;;;;1.10;1.00;;;23.50;69.30;;;;;;5086989;28;27513;-64
2021/06/05 13:12:22;;;;;;;2.25;0.93;;;23.50;69.40;;;;;;5086715;28;27429;-64
2021/06/05 13:15:28;;;;;;;4.15;1.20;;;23.40;69.70;;;;;;5086169;28;27336;-64
2021/06/05 13:18:44;;;;;;;3.65;2.38;;;23.30;70.10;;;;;;5086645;28;27483;-65
2021/06/05 13:21:31;;;;;;;2.90;1.80;;;23.20;71.30;;;;;;5084180;28;27394;-65
2021/06/05 13:24:18;;;;;;;2.47;1.60;;;23.10;73.00;;;;;;5086585;28;27410;-66
2021/06/05 13:27:32;;;;;;;4.35;1.65;;;23.10;73.50;;;;;;5085895;28;27900;-65
2021/06/05 13:30:16;;;;;;;3.45;1.48;;;23.10;75.00;;;;;;5083195;28;27450;-68
2021/06/05 13:33:01;;;;;;;6.28;1.20;;;23.10;74.90;;;;;;5082917;28;27494;-67
2021/06/05 13:35:46;;;;;;;4.93;1.70;;;23.10;75.90;;;;;;5085963;28;27416;-67
2021/06/05 13:38:30;;;;;;;2.28;1.63;;;23.20;76.40;;;;;;5086636;28;27935;-68
2021/06/05 13:41:15;;;;;;;2.45;2.25;;;23.20;76.40;;;;;;5085970;28;27402;-68
2021/06/05 13:44:00;;;;;;;5.15;2.38;;;23.30;75.90;;;;;;5086071;28;27411;-67
2021/06/05 13:46:44;;;;;;;2.22;1.70;;;23.30;76.70;;;;;;5086186;28;27468;-69
2021/06/05 13:49:29;;;;;;;2.08;1.65;;;23.40;75.60;;;;;;5086211;28;27423;-67
2021/06/05 13:52:29;;;;;;;2.28;1.73;;;23.40;75.20;;;;;;5084632;28;27508;-69
2021/06/05 13:55:27;;;;;;;2.22;1.55;;;23.50;75.10;;;;;;5086148;28;27508;-68
2021/06/05 13:58:12;;;;;;;1.90;1.30;;;23.60;75.80;;;;;;5085012;28;27325;-68
2021/06/05 14:00:57;;;;;;;2.33;1.67;;;23.70;76.90;;;;;;5082288;28;27304;-68
2021/06/05 14:03:42;;;;;;;3.60;1.70;;;23.80;78.60;;;;;;5099617;27;27410;-71
2021/06/05 14:06:26;;;;;;;3.22;1.60;;;24.00;79.30;;;;;;5085910;28;27351;-68
2021/06/05 14:09:12;;;;;;;2.10;1.58;;;24.10;80.00;;;;;;5085891;28;27414;-68
2021/06/05 14:11:56;;;;;;;2.05;1.20;;;24.20;80.00;;;;;;5085816;28;27370;-68
2021/06/05 14:14:41;;;;;;;2.50;1.40;;;24.20;77.90;;;;;;5086114;28;27447;-68
2021/06/05 14:17:25;;;;;;;2.28;1.40;;;24.30;77.60;;;;;;5085621;28;27416;-68
2021/06/05 14:20:10;;;;;;;1.83;1.23;;;24.40;78.50;;;;;;5086021;28;27390;-68
2021/06/05 14:22:55;;;;;;;3.00;1.42;;;24.40;78.40;;;;;;5085760;28;27423;-68
2021/06/05 14:25:40;;;;;;;2.17;1.52;;;24.50;77.30;;;;;;5085851;28;27337;-68
2021/06/05 14:28:26;;;;;;;1.95;1.35;;;24.50;77.90;;;;;;5084934;28;27337;-68
2021/06/05 14:31:14;;;;;;;3.13;1.90;;;24.60;79.20;;;;;;5085681;28;27353;-73
2021/06/05 14:33:59;;;;;;;1.05;0.90;;;24.70;79.60;;;;;;5085704;28;27412;-68
2021/06/05 14:36:43;;;;;;;1.50;1.00;;;24.80;79.00;;;;;;5085710;28;27375;-68
2021/06/05 14:39:28;;;;;;;1.55;1.20;;;24.80;78.80;;;;;;5085353;28;27360;-70
2021/06/05 14:42:15;;;;;;;1.10;1.00;;;24.80;78.30;;;;;;5085585;28;27407;-71
2021/06/05 14:45:00;;;;;;;5.93;1.20;;;24.80;73.70;;;;;;5098710;27;27482;-67